sensor_id;sensor_type;location;lat;lon;timestamp;temperature;humidity
13880;DHT22;7010;48.200;16.332;2022-09-27T00:01:51;13.50;99.90
13880;DHT22;7010;48.200;16.332;2022-09-27T00:04:20;13.40;99.90
13880;DHT22;7010;48.200;16.332;2022-09-27T00:06:48;13.40;99.90
13880;DHT22;7010;48.200;16.332;2022-09-27T00:09:18;13.40;99.90
13880;DHT22;7010;48.200;16.332;2022-09-27T00:11:46;13.40;99.90
13880;DHT22;7010;48.200;16.332;2022-09-27T00:14:15;13.40;99.90
13880;DHT22;7010;48.200;16.332;2022-09-27T00:16:44;13.40;99.90
13880;DHT22;7010;48.200;16.332;2022-09-27T00:19:14;13.40;99.90
13880;DHT22;7010;48.200;16.332;2022-09-27T00:21:44;13.40;99.90
13880;DHT22;7010;48.200;16.332;2022-09-27T00:24:14;13.40;99.90
13880;DHT22;7010;48.200;16.332;2022-09-27T00:26:44;13.40;99.90
13880;DHT22;7010;48.200;16.332;2022-09-27T00:29:14;13.40;99.90
13880;DHT22;7010;48.200;16.332;2022-09-27T00:31:43;13.30;99.90
13880;DHT22;7010;48.200;16.332;2022-09-27T00:34:17;13.30;99.90
13880;DHT22;7010;48.200;16.332;2022-09-27T00:36:46;13.30;99.90
13880;DHT22;7010;48.200;16.332;2022-09-27T00:39:15;13.30;99.90
13880;DHT22;7010;48.200;16.332;2022-09-27T00:41:45;13.30;99.90
13880;DHT22;7010;48.200;16.332;2022-09-27T00:46:48;13.30;99.90
13880;DHT22;7010;48.200;16.332;2022-09-27T00:49:20;13.30;99.90
13880;DHT22;7010;48.200;16.332;2022-09-27T00:51:53;13.20;99.90
13880;DHT22;7010;48.200;16.332;2022-09-27T00:54:24;13.20;99.90
13880;DHT22;7010;48.200;16.332;2022-09-27T00:56:55;13.20;99.90
13880;DHT22;7010;48.200;16.332;2022-09-27T00:59:28;13.20;99.90
13880;DHT22;7010;48.200;16.332;2022-09-27T01:01:57;13.20;99.90
13880;DHT22;7010;48.200;16.332;2022-09-27T01:04:26;13.20;99.90
13880;DHT22;7010;48.200;16.332;2022-09-27T01:06:56;13.20;99.90
13880;DHT22;7010;48.200;16.332;2022-09-27T01:09:25;13.20;99.90
13880;DHT22;7010;48.200;16.332;2022-09-27T01:12:03;13.10;99.90
13880;DHT22;7010;48.200;16.332;2022-09-27T01:14:48;13.10;99.90
13880;DHT22;7010;48.200;16.332;2022-09-27T01:17:34;13.10;99.90
13880;DHT22;7010;48.200;16.332;2022-09-27T01:20:33;13.10;99.90
13880;DHT22;7010;48.200;16.332;2022-09-27T01:23:19;13.10;99.90
13880;DHT22;7010;48.200;16.332;2022-09-27T01:26:08;13.10;99.90
13880;DHT22;7010;48.200;16.332;2022-09-27T01:28:47;13.00;99.90
13880;DHT22;7010;48.200;16.332;2022-09-27T01:31:23;13.00;99.90
13880;DHT22;7010;48.200;16.332;2022-09-27T01:34:00;13.00;99.90
13880;DHT22;7010;48.200;16.332;2022-09-27T01:36:37;13.00;99.90
13880;DHT22;7010;48.200;16.332;2022-09-27T01:39:18;12.90;99.90
13880;DHT22;7010;48.200;16.332;2022-09-27T01:41:52;12.90;99.90
13880;DHT22;7010;48.200;16.332;2022-09-27T01:44:27;12.80;99.90
13880;DHT22;7010;48.200;16.332;2022-09-27T01:47:00;12.80;99.90
13880;DHT22;7010;48.200;16.332;2022-09-27T01:49:33;12.80;99.90
13880;DHT22;7010;48.200;16.332;2022-09-27T01:52:07;12.80;99.90
13880;DHT22;7010;48.200;16.332;2022-09-27T01:54:38;12.80;99.90
13880;DHT22;7010;48.200;16.332;2022-09-27T01:57:10;12.80;99.90
13880;DHT22;7010;48.200;16.332;2022-09-27T01:59:44;12.80;99.90
13880;DHT22;7010;48.200;16.332;2022-09-27T02:02:17;12.80;99.90
13880;DHT22;7010;48.200;16.332;2022-09-27T02:04:52;12.80;99.90
13880;DHT22;7010;48.200;16.332;2022-09-27T02:07:23;12.80;99.90
13880;DHT22;7010;48.200;16.332;2022-09-27T02:09:57;12.80;99.90
13880;DHT22;7010;48.200;16.332;2022-09-27T02:12:30;12.70;99.90
13880;DHT22;7010;48.200;16.332;2022-09-27T02:15:03;12.80;99.90
13880;DHT22;7010;48.200;16.332;2022-09-27T02:17:40;12.70;99.90
13880;DHT22;7010;48.200;16.332;2022-09-27T02:20:15;12.70;99.90
13880;DHT22;7010;48.200;16.332;2022-09-27T02:22:47;12.70;99.90
13880;DHT22;7010;48.200;16.332;2022-09-27T02:25:22;12.70;99.90
13880;DHT22;7010;48.200;16.332;2022-09-27T02:27:56;12.70;99.90
13880;DHT22;7010;48.200;16.332;2022-09-27T02:30:26;12.70;99.90
13880;DHT22;7010;48.200;16.332;2022-09-27T02:32:56;12.70;99.90
13880;DHT22;7010;48.200;16.332;2022-09-27T02:35:27;12.70;99.90
13880;DHT22;7010;48.200;16.332;2022-09-27T02:37:57;12.70;99.90
13880;DHT22;7010;48.200;16.332;2022-09-27T02:40:30;12.70;99.90
13880;DHT22;7010;48.200;16.332;2022-09-27T02:43:02;12.70;99.90
13880;DHT22;7010;48.200;16.332;2022-09-27T02:45:38;12.70;99.90
13880;DHT22;7010;48.200;16.332;2022-09-27T02:48:17;12.60;99.90
13880;DHT22;7010;48.200;16.332;2022-09-27T02:51:04;12.60;99.90
13880;DHT22;7010;48.200;16.332;2022-09-27T02:53:40;12.60;99.90
13880;DHT22;7010;48.200;16.332;2022-09-27T02:56:18;12.60;99.90
13880;DHT22;7010;48.200;16.332;2022-09-27T02:58:59;12.60;99.90
13880;DHT22;7010;48.200;16.332;2022-09-27T03:01:39;12.50;99.90
13880;DHT22;7010;48.200;16.332;2022-09-27T03:04:17;12.50;99.90
13880;DHT22;7010;48.200;16.332;2022-09-27T03:06:49;12.50;99.90
13880;DHT22;7010;48.200;16.332;2022-09-27T03:09:20;12.50;99.90
13880;DHT22;7010;48.200;16.332;2022-09-27T03:11:49;12.40;99.90
13880;DHT22;7010;48.200;16.332;2022-09-27T03:14:17;12.40;99.90
13880;DHT22;7010;48.200;16.332;2022-09-27T03:16:45;12.40;99.90
13880;DHT22;7010;48.200;16.332;2022-09-27T03:19:15;12.40;99.90
13880;DHT22;7010;48.200;16.332;2022-09-27T03:21:43;12.30;99.90
13880;DHT22;7010;48.200;16.332;2022-09-27T03:24:11;12.30;99.90
13880;DHT22;7010;48.200;16.332;2022-09-27T03:26:40;12.30;99.90
13880;DHT22;7010;48.200;16.332;2022-09-27T03:29:08;12.30;99.90
13880;DHT22;7010;48.200;16.332;2022-09-27T03:31:36;12.20;99.90
13880;DHT22;7010;48.200;16.332;2022-09-27T03:34:05;12.20;99.90
13880;DHT22;7010;48.200;16.332;2022-09-27T03:36:35;12.20;99.90
13880;DHT22;7010;48.200;16.332;2022-09-27T03:39:03;12.20;99.90
13880;DHT22;7010;48.200;16.332;2022-09-27T03:41:32;12.10;99.90
13880;DHT22;7010;48.200;16.332;2022-09-27T03:44:00;12.10;99.90
13880;DHT22;7010;48.200;16.332;2022-09-27T03:46:29;12.20;99.90
13880;DHT22;7010;48.200;16.332;2022-09-27T03:48:57;12.20;99.90
13880;DHT22;7010;48.200;16.332;2022-09-27T03:51:25;12.20;99.90
13880;DHT22;7010;48.200;16.332;2022-09-27T03:53:55;12.20;99.90
13880;DHT22;7010;48.200;16.332;2022-09-27T03:56:24;12.20;99.90
13880;DHT22;7010;48.200;16.332;2022-09-27T03:58:52;12.20;99.90
13880;DHT22;7010;48.200;16.332;2022-09-27T04:01:20;12.20;99.90
13880;DHT22;7010;48.200;16.332;2022-09-27T04:03:48;12.20;99.90
13880;DHT22;7010;48.200;16.332;2022-09-27T04:06:17;12.20;99.90
13880;DHT22;7010;48.200;16.332;2022-09-27T04:08:45;12.20;99.90
13880;DHT22;7010;48.200;16.332;2022-09-27T04:11:15;12.30;99.90
13880;DHT22;7010;48.200;16.332;2022-09-27T04:13:44;12.30;99.90
13880;DHT22;7010;48.200;16.332;2022-09-27T04:16:15;12.30;99.90
13880;DHT22;7010;48.200;16.332;2022-09-27T04:18:43;12.30;99.90
13880;DHT22;7010;48.200;16.332;2022-09-27T04:21:12;12.40;99.90
13880;DHT22;7010;48.200;16.332;2022-09-27T04:23:40;12.40;99.90
13880;DHT22;7010;48.200;16.332;2022-09-27T04:26:08;12.40;99.90
13880;DHT22;7010;48.200;16.332;2022-09-27T04:28:38;12.40;99.90
13880;DHT22;7010;48.200;16.332;2022-09-27T04:31:07;12.50;99.90
13880;DHT22;7010;48.200;16.332;2022-09-27T04:33:35;12.50;99.90
13880;DHT22;7010;48.200;16.332;2022-09-27T04:36:04;12.50;99.90
13880;DHT22;7010;48.200;16.332;2022-09-27T04:38:50;12.60;99.90
13880;DHT22;7010;48.200;16.332;2022-09-27T04:41:18;12.50;99.90
13880;DHT22;7010;48.200;16.332;2022-09-27T04:43:51;12.50;99.90
13880;DHT22;7010;48.200;16.332;2022-09-27T04:46:25;12.60;99.90
13880;DHT22;7010;48.200;16.332;2022-09-27T04:48:57;12.60;99.90
13880;DHT22;7010;48.200;16.332;2022-09-27T04:51:26;12.60;99.90
13880;DHT22;7010;48.200;16.332;2022-09-27T04:53:55;12.60;99.90
13880;DHT22;7010;48.200;16.332;2022-09-27T04:56:23;12.60;99.90
13880;DHT22;7010;48.200;16.332;2022-09-27T04:58:53;12.60;99.90
13880;DHT22;7010;48.200;16.332;2022-09-27T05:01:21;12.50;99.90
13880;DHT22;7010;48.200;16.332;2022-09-27T05:03:50;12.40;99.90
13880;DHT22;7010;48.200;16.332;2022-09-27T05:06:18;12.30;99.90
13880;DHT22;7010;48.200;16.332;2022-09-27T05:08:46;12.20;99.90
13880;DHT22;7010;48.200;16.332;2022-09-27T05:11:15;12.10;99.90
13880;DHT22;7010;48.200;16.332;2022-09-27T05:13:43;12.10;99.90
13880;DHT22;7010;48.200;16.332;2022-09-27T05:16:13;12.10;99.90
13880;DHT22;7010;48.200;16.332;2022-09-27T05:18:41;12.00;99.90
13880;DHT22;7010;48.200;16.332;2022-09-27T05:21:09;12.10;99.90
13880;DHT22;7010;48.200;16.332;2022-09-27T05:23:38;12.10;99.90
13880;DHT22;7010;48.200;16.332;2022-09-27T05:26:13;12.10;99.90
13880;DHT22;7010;48.200;16.332;2022-09-27T05:28:41;12.20;99.90
13880;DHT22;7010;48.200;16.332;2022-09-27T05:31:10;12.20;99.90
13880;DHT22;7010;48.200;16.332;2022-09-27T05:33:41;12.30;99.90
13880;DHT22;7010;48.200;16.332;2022-09-27T05:36:10;12.30;99.90
13880;DHT22;7010;48.200;16.332;2022-09-27T05:38:38;12.30;99.90
13880;DHT22;7010;48.200;16.332;2022-09-27T05:41:08;12.30;99.90
13880;DHT22;7010;48.200;16.332;2022-09-27T05:43:37;12.40;99.90
13880;DHT22;7010;48.200;16.332;2022-09-27T05:46:05;12.50;99.90
13880;DHT22;7010;48.200;16.332;2022-09-27T05:48:33;12.50;99.90
13880;DHT22;7010;48.200;16.332;2022-09-27T05:51:07;12.60;99.90
13880;DHT22;7010;48.200;16.332;2022-09-27T05:53:36;12.60;99.90
13880;DHT22;7010;48.200;16.332;2022-09-27T05:56:05;12.70;99.90
13880;DHT22;7010;48.200;16.332;2022-09-27T05:58:33;12.80;99.90
13880;DHT22;7010;48.200;16.332;2022-09-27T06:01:05;12.80;99.90
13880;DHT22;7010;48.200;16.332;2022-09-27T06:03:33;12.90;99.90
13880;DHT22;7010;48.200;16.332;2022-09-27T06:06:04;12.90;99.90
13880;DHT22;7010;48.200;16.332;2022-09-27T06:08:33;13.00;99.90
13880;DHT22;7010;48.200;16.332;2022-09-27T06:11:03;13.00;99.90
13880;DHT22;7010;48.200;16.332;2022-09-27T06:13:32;13.00;99.90
13880;DHT22;7010;48.200;16.332;2022-09-27T06:16:02;13.10;99.90
13880;DHT22;7010;48.200;16.332;2022-09-27T06:18:31;13.10;99.90
13880;DHT22;7010;48.200;16.332;2022-09-27T06:21:00;13.20;99.90
13880;DHT22;7010;48.200;16.332;2022-09-27T06:23:30;13.30;99.90
13880;DHT22;7010;48.200;16.332;2022-09-27T06:26:06;13.30;99.90
13880;DHT22;7010;48.200;16.332;2022-09-27T06:28:43;13.30;99.90
13880;DHT22;7010;48.200;16.332;2022-09-27T06:31:27;13.30;99.90
13880;DHT22;7010;48.200;16.332;2022-09-27T06:33:55;13.30;99.90
13880;DHT22;7010;48.200;16.332;2022-09-27T06:36:24;13.30;99.90
13880;DHT22;7010;48.200;16.332;2022-09-27T06:38:54;13.40;99.90
13880;DHT22;7010;48.200;16.332;2022-09-27T06:41:23;13.40;99.90
13880;DHT22;7010;48.200;16.332;2022-09-27T06:43:51;13.50;99.90
13880;DHT22;7010;48.200;16.332;2022-09-27T06:46:19;13.50;99.90
13880;DHT22;7010;48.200;16.332;2022-09-27T06:48:48;13.50;99.90
13880;DHT22;7010;48.200;16.332;2022-09-27T06:51:16;13.50;99.90
13880;DHT22;7010;48.200;16.332;2022-09-27T06:53:44;13.40;99.90
13880;DHT22;7010;48.200;16.332;2022-09-27T06:56:14;13.40;99.90
13880;DHT22;7010;48.200;16.332;2022-09-27T06:58:42;13.40;99.90
13880;DHT22;7010;48.200;16.332;2022-09-27T07:01:28;13.40;99.90
13880;DHT22;7010;48.200;16.332;2022-09-27T07:03:56;13.40;99.90
13880;DHT22;7010;48.200;16.332;2022-09-27T07:06:24;13.40;99.90
13880;DHT22;7010;48.200;16.332;2022-09-27T07:08:53;13.40;99.90
13880;DHT22;7010;48.200;16.332;2022-09-27T07:11:23;13.40;99.90
13880;DHT22;7010;48.200;16.332;2022-09-27T07:13:51;13.40;99.90
13880;DHT22;7010;48.200;16.332;2022-09-27T07:16:21;13.40;99.90
13880;DHT22;7010;48.200;16.332;2022-09-27T07:18:49;13.50;99.90
13880;DHT22;7010;48.200;16.332;2022-09-27T07:21:18;13.40;99.90
13880;DHT22;7010;48.200;16.332;2022-09-27T07:23:47;13.50;99.90
13880;DHT22;7010;48.200;16.332;2022-09-27T07:26:15;13.50;99.90
13880;DHT22;7010;48.200;16.332;2022-09-27T07:28:45;13.50;99.90
13880;DHT22;7010;48.200;16.332;2022-09-27T07:31:13;13.50;99.90
13880;DHT22;7010;48.200;16.332;2022-09-27T07:33:42;13.50;99.90
13880;DHT22;7010;48.200;16.332;2022-09-27T07:36:12;13.60;99.90
13880;DHT22;7010;48.200;16.332;2022-09-27T07:38:40;13.50;99.90
13880;DHT22;7010;48.200;16.332;2022-09-27T07:41:10;13.50;99.90
13880;DHT22;7010;48.200;16.332;2022-09-27T07:43:40;13.50;99.90
13880;DHT22;7010;48.200;16.332;2022-09-27T07:46:11;13.50;99.90
13880;DHT22;7010;48.200;16.332;2022-09-27T07:48:40;13.50;99.90
13880;DHT22;7010;48.200;16.332;2022-09-27T07:51:08;13.30;99.90
13880;DHT22;7010;48.200;16.332;2022-09-27T07:53:37;13.40;99.90
13880;DHT22;7010;48.200;16.332;2022-09-27T07:56:06;13.40;99.90
13880;DHT22;7010;48.200;16.332;2022-09-27T07:58:35;13.40;99.90
13880;DHT22;7010;48.200;16.332;2022-09-27T08:01:03;13.40;99.90
13880;DHT22;7010;48.200;16.332;2022-09-27T08:03:34;13.30;99.90
13880;DHT22;7010;48.200;16.332;2022-09-27T08:06:03;13.30;99.90
13880;DHT22;7010;48.200;16.332;2022-09-27T08:08:32;13.30;99.90
13880;DHT22;7010;48.200;16.332;2022-09-27T08:11:00;13.30;99.90
13880;DHT22;7010;48.200;16.332;2022-09-27T08:13:28;13.20;99.90
13880;DHT22;7010;48.200;16.332;2022-09-27T08:16:00;13.20;99.90
13880;DHT22;7010;48.200;16.332;2022-09-27T08:18:29;13.10;99.90
13880;DHT22;7010;48.200;16.332;2022-09-27T08:20:59;13.00;99.90
13880;DHT22;7010;48.200;16.332;2022-09-27T08:23:28;12.90;99.90
13880;DHT22;7010;48.200;16.332;2022-09-27T08:25:56;12.80;99.90
13880;DHT22;7010;48.200;16.332;2022-09-27T08:28:25;12.60;99.90
13880;DHT22;7010;48.200;16.332;2022-09-27T08:30:56;12.60;99.90
13880;DHT22;7010;48.200;16.332;2022-09-27T08:33:25;12.50;99.90
13880;DHT22;7010;48.200;16.332;2022-09-27T08:36:00;12.40;99.90
13880;DHT22;7010;48.200;16.332;2022-09-27T08:38:29;12.30;99.90
13880;DHT22;7010;48.200;16.332;2022-09-27T08:41:02;12.20;99.90
13880;DHT22;7010;48.200;16.332;2022-09-27T08:43:38;12.20;99.90
13880;DHT22;7010;48.200;16.332;2022-09-27T08:46:18;12.10;99.90
13880;DHT22;7010;48.200;16.332;2022-09-27T08:48:51;12.10;99.90
13880;DHT22;7010;48.200;16.332;2022-09-27T08:51:27;12.00;99.90
13880;DHT22;7010;48.200;16.332;2022-09-27T08:53:59;12.00;99.90
13880;DHT22;7010;48.200;16.332;2022-09-27T08:56:30;11.90;99.90
13880;DHT22;7010;48.200;16.332;2022-09-27T08:59:03;12.00;99.90
13880;DHT22;7010;48.200;16.332;2022-09-27T09:01:33;12.00;99.90
13880;DHT22;7010;48.200;16.332;2022-09-27T09:04:02;11.90;99.90
13880;DHT22;7010;48.200;16.332;2022-09-27T09:06:40;12.00;99.90
13880;DHT22;7010;48.200;16.332;2022-09-27T09:09:21;12.10;99.90
13880;DHT22;7010;48.200;16.332;2022-09-27T09:11:59;12.10;99.90
13880;DHT22;7010;48.200;16.332;2022-09-27T09:15:02;12.10;99.90
13880;DHT22;7010;48.200;16.332;2022-09-27T09:17:45;12.10;99.90
13880;DHT22;7010;48.200;16.332;2022-09-27T09:20:29;12.10;99.90
13880;DHT22;7010;48.200;16.332;2022-09-27T09:23:26;12.10;99.90
13880;DHT22;7010;48.200;16.332;2022-09-27T09:26:06;12.10;99.90
13880;DHT22;7010;48.200;16.332;2022-09-27T09:28:44;12.10;99.90
13880;DHT22;7010;48.200;16.332;2022-09-27T09:31:22;12.10;99.90
13880;DHT22;7010;48.200;16.332;2022-09-27T09:33:56;12.10;99.90
13880;DHT22;7010;48.200;16.332;2022-09-27T09:36:28;12.10;99.90
13880;DHT22;7010;48.200;16.332;2022-09-27T09:39:03;12.20;99.90
13880;DHT22;7010;48.200;16.332;2022-09-27T09:41:35;12.10;99.90
13880;DHT22;7010;48.200;16.332;2022-09-27T09:44:14;12.10;99.90
13880;DHT22;7010;48.200;16.332;2022-09-27T09:46:46;12.10;99.90
13880;DHT22;7010;48.200;16.332;2022-09-27T09:49:18;12.10;99.90
13880;DHT22;7010;48.200;16.332;2022-09-27T09:51:52;12.20;99.90
13880;DHT22;7010;48.200;16.332;2022-09-27T09:54:28;12.20;99.90
13880;DHT22;7010;48.200;16.332;2022-09-27T09:57:02;12.20;99.90
13880;DHT22;7010;48.200;16.332;2022-09-27T09:59:36;12.30;99.90
13880;DHT22;7010;48.200;16.332;2022-09-27T10:02:19;12.40;99.90
13880;DHT22;7010;48.200;16.332;2022-09-27T10:04:48;12.60;99.90
13880;DHT22;7010;48.200;16.332;2022-09-27T10:07:20;12.70;99.90
13880;DHT22;7010;48.200;16.332;2022-09-27T10:09:51;12.80;99.90
13880;DHT22;7010;48.200;16.332;2022-09-27T10:12:21;12.90;99.90
13880;DHT22;7010;48.200;16.332;2022-09-27T10:14:49;12.90;99.90
13880;DHT22;7010;48.200;16.332;2022-09-27T10:17:21;13.00;99.90
13880;DHT22;7010;48.200;16.332;2022-09-27T10:19:52;13.20;99.90
13880;DHT22;7010;48.200;16.332;2022-09-27T10:22:25;13.20;99.90
13880;DHT22;7010;48.200;16.332;2022-09-27T10:24:59;13.30;99.90
13880;DHT22;7010;48.200;16.332;2022-09-27T10:27:38;13.50;99.90
13880;DHT22;7010;48.200;16.332;2022-09-27T10:30:21;13.50;99.90
13880;DHT22;7010;48.200;16.332;2022-09-27T10:32:51;13.60;99.90
13880;DHT22;7010;48.200;16.332;2022-09-27T10:35:34;13.60;99.90
13880;DHT22;7010;48.200;16.332;2022-09-27T10:38:21;13.80;99.90
13880;DHT22;7010;48.200;16.332;2022-09-27T10:40:56;14.00;99.90
13880;DHT22;7010;48.200;16.332;2022-09-27T10:43:32;14.00;99.90
13880;DHT22;7010;48.200;16.332;2022-09-27T10:46:15;14.10;99.90
13880;DHT22;7010;48.200;16.332;2022-09-27T10:49:08;14.20;99.90
13880;DHT22;7010;48.200;16.332;2022-09-27T10:51:38;14.50;99.90
13880;DHT22;7010;48.200;16.332;2022-09-27T10:54:18;14.70;99.90
13880;DHT22;7010;48.200;16.332;2022-09-27T10:56:56;14.90;99.90
13880;DHT22;7010;48.200;16.332;2022-09-27T10:59:26;15.00;99.90
13880;DHT22;7010;48.200;16.332;2022-09-27T11:01:57;14.90;99.90
13880;DHT22;7010;48.200;16.332;2022-09-27T11:04:29;14.80;99.90
13880;DHT22;7010;48.200;16.332;2022-09-27T11:07:16;14.70;99.90
13880;DHT22;7010;48.200;16.332;2022-09-27T11:09:49;14.70;99.90
13880;DHT22;7010;48.200;16.332;2022-09-27T11:12:21;14.60;99.90
13880;DHT22;7010;48.200;16.332;2022-09-27T11:14:56;14.50;99.90
13880;DHT22;7010;48.200;16.332;2022-09-27T11:17:34;14.50;99.90
13880;DHT22;7010;48.200;16.332;2022-09-27T11:20:18;14.50;99.90
13880;DHT22;7010;48.200;16.332;2022-09-27T11:26:06;14.50;99.90
13880;DHT22;7010;48.200;16.332;2022-09-27T11:28:48;14.50;99.90
13880;DHT22;7010;48.200;16.332;2022-09-27T11:31:26;14.50;99.90
13880;DHT22;7010;48.200;16.332;2022-09-27T11:34:11;14.50;99.90
13880;DHT22;7010;48.200;16.332;2022-09-27T11:36:55;14.40;99.90
13880;DHT22;7010;48.200;16.332;2022-09-27T11:39:31;14.40;99.90
13880;DHT22;7010;48.200;16.332;2022-09-27T11:42:15;14.40;99.90
13880;DHT22;7010;48.200;16.332;2022-09-27T11:45:13;14.40;99.90
13880;DHT22;7010;48.200;16.332;2022-09-27T11:48:14;14.30;99.90
13880;DHT22;7010;48.200;16.332;2022-09-27T11:51:02;14.30;99.90
13880;DHT22;7010;48.200;16.332;2022-09-27T11:54:14;14.30;99.90
13880;DHT22;7010;48.200;16.332;2022-09-27T11:56:54;14.20;99.90
13880;DHT22;7010;48.200;16.332;2022-09-27T12:00:03;14.10;99.90
13880;DHT22;7010;48.200;16.332;2022-09-27T12:03:11;14.00;99.90
13880;DHT22;7010;48.200;16.332;2022-09-27T12:05:52;14.10;99.90
13880;DHT22;7010;48.200;16.332;2022-09-27T12:08:48;14.20;99.90
13880;DHT22;7010;48.200;16.332;2022-09-27T12:11:24;14.20;99.90
13880;DHT22;7010;48.200;16.332;2022-09-27T12:13:57;14.20;99.90
13880;DHT22;7010;48.200;16.332;2022-09-27T12:16:31;14.30;99.90
13880;DHT22;7010;48.200;16.332;2022-09-27T12:19:02;14.30;99.90
13880;DHT22;7010;48.200;16.332;2022-09-27T12:21:32;14.30;99.90
13880;DHT22;7010;48.200;16.332;2022-09-27T12:24:03;14.40;99.90
13880;DHT22;7010;48.200;16.332;2022-09-27T12:26:36;14.40;99.90
13880;DHT22;7010;48.200;16.332;2022-09-27T12:29:10;14.40;99.90
13880;DHT22;7010;48.200;16.332;2022-09-27T12:31:46;14.40;99.90
13880;DHT22;7010;48.200;16.332;2022-09-27T12:34:23;14.40;99.90
13880;DHT22;7010;48.200;16.332;2022-09-27T12:36:59;14.40;99.90
13880;DHT22;7010;48.200;16.332;2022-09-27T12:39:40;14.40;99.90
13880;DHT22;7010;48.200;16.332;2022-09-27T12:42:16;14.50;99.90
13880;DHT22;7010;48.200;16.332;2022-09-27T12:44:50;14.60;99.90
13880;DHT22;7010;48.200;16.332;2022-09-27T12:47:32;14.60;99.90
13880;DHT22;7010;48.200;16.332;2022-09-27T12:50:13;14.60;99.90
13880;DHT22;7010;48.200;16.332;2022-09-27T12:52:44;14.60;99.90
13880;DHT22;7010;48.200;16.332;2022-09-27T12:55:33;14.60;99.90
13880;DHT22;7010;48.200;16.332;2022-09-27T12:58:33;14.60;99.90
13880;DHT22;7010;48.200;16.332;2022-09-27T13:01:11;14.60;99.90
13880;DHT22;7010;48.200;16.332;2022-09-27T13:03:53;14.50;99.90
13880;DHT22;7010;48.200;16.332;2022-09-27T13:06:33;14.40;99.90
13880;DHT22;7010;48.200;16.332;2022-09-27T13:12:08;14.30;99.90
13880;DHT22;7010;48.200;16.332;2022-09-27T13:17:55;14.30;99.90
13880;DHT22;7010;48.200;16.332;2022-09-27T13:20:40;14.20;99.90
13880;DHT22;7010;48.200;16.332;2022-09-27T13:26:45;14.00;99.90
13880;DHT22;7010;48.200;16.332;2022-09-27T13:29:32;14.00;99.90
13880;DHT22;7010;48.200;16.332;2022-09-27T13:32:20;14.00;99.90
13880;DHT22;7010;48.200;16.332;2022-09-27T13:34:51;14.00;99.90
13880;DHT22;7010;48.200;16.332;2022-09-27T13:37:38;14.00;99.90
13880;DHT22;7010;48.200;16.332;2022-09-27T13:40:29;14.00;99.90
13880;DHT22;7010;48.200;16.332;2022-09-27T13:46:05;14.10;99.90
13880;DHT22;7010;48.200;16.332;2022-09-27T13:48:46;14.10;99.90
13880;DHT22;7010;48.200;16.332;2022-09-27T13:51:22;14.20;99.90
13880;DHT22;7010;48.200;16.332;2022-09-27T13:53:59;14.20;99.90
13880;DHT22;7010;48.200;16.332;2022-09-27T13:56:53;14.20;99.90
13880;DHT22;7010;48.200;16.332;2022-09-27T13:59:28;14.20;99.90
13880;DHT22;7010;48.200;16.332;2022-09-27T14:02:12;14.20;99.90
13880;DHT22;7010;48.200;16.332;2022-09-27T14:04:47;14.20;99.90
13880;DHT22;7010;48.200;16.332;2022-09-27T14:07:21;14.20;99.90
13880;DHT22;7010;48.200;16.332;2022-09-27T14:13:18;14.00;99.90
13880;DHT22;7010;48.200;16.332;2022-09-27T14:15:47;14.00;99.90
13880;DHT22;7010;48.200;16.332;2022-09-27T14:18:17;14.00;99.90
13880;DHT22;7010;48.200;16.332;2022-09-27T14:20:48;14.00;99.90
13880;DHT22;7010;48.200;16.332;2022-09-27T14:23:20;14.00;99.90
13880;DHT22;7010;48.200;16.332;2022-09-27T14:25:51;13.90;99.90
13880;DHT22;7010;48.200;16.332;2022-09-27T14:28:24;13.90;99.90
13880;DHT22;7010;48.200;16.332;2022-09-27T14:31:06;13.80;99.90
13880;DHT22;7010;48.200;16.332;2022-09-27T14:33:36;13.70;99.90
13880;DHT22;7010;48.200;16.332;2022-09-27T14:36:11;13.70;99.90
13880;DHT22;7010;48.200;16.332;2022-09-27T14:39:02;13.70;99.90
13880;DHT22;7010;48.200;16.332;2022-09-27T14:41:39;13.70;99.90
13880;DHT22;7010;48.200;16.332;2022-09-27T14:44:14;13.60;99.90
13880;DHT22;7010;48.200;16.332;2022-09-27T14:46:43;13.60;99.90
13880;DHT22;7010;48.200;16.332;2022-09-27T14:49:18;13.60;99.90
13880;DHT22;7010;48.200;16.332;2022-09-27T14:51:52;13.50;99.90
13880;DHT22;7010;48.200;16.332;2022-09-27T14:54:24;13.50;99.90
13880;DHT22;7010;48.200;16.332;2022-09-27T14:56:58;13.50;99.90
13880;DHT22;7010;48.200;16.332;2022-09-27T14:59:33;13.50;99.90
13880;DHT22;7010;48.200;16.332;2022-09-27T15:02:16;13.50;99.90
13880;DHT22;7010;48.200;16.332;2022-09-27T15:04:48;13.50;99.90
13880;DHT22;7010;48.200;16.332;2022-09-27T15:07:20;13.50;99.90
13880;DHT22;7010;48.200;16.332;2022-09-27T15:10:02;13.60;99.90
13880;DHT22;7010;48.200;16.332;2022-09-27T15:12:34;13.60;99.90
13880;DHT22;7010;48.200;16.332;2022-09-27T15:15:12;13.60;99.90
13880;DHT22;7010;48.200;16.332;2022-09-27T15:17:46;13.60;99.90
13880;DHT22;7010;48.200;16.332;2022-09-27T15:20:23;13.60;99.90
13880;DHT22;7010;48.200;16.332;2022-09-27T15:23:01;13.50;99.90
13880;DHT22;7010;48.200;16.332;2022-09-27T15:25:33;13.50;99.90
13880;DHT22;7010;48.200;16.332;2022-09-27T15:28:04;13.40;99.90
13880;DHT22;7010;48.200;16.332;2022-09-27T15:30:57;13.40;99.90
13880;DHT22;7010;48.200;16.332;2022-09-27T15:33:30;13.50;99.90
13880;DHT22;7010;48.200;16.332;2022-09-27T15:36:02;13.40;99.90
13880;DHT22;7010;48.200;16.332;2022-09-27T15:38:32;13.40;99.90
13880;DHT22;7010;48.200;16.332;2022-09-27T15:41:09;13.40;99.90
13880;DHT22;7010;48.200;16.332;2022-09-27T15:43:43;13.40;99.90
13880;DHT22;7010;48.200;16.332;2022-09-27T15:46:37;13.40;99.90
13880;DHT22;7010;48.200;16.332;2022-09-27T15:49:35;13.40;99.90
13880;DHT22;7010;48.200;16.332;2022-09-27T15:52:03;13.40;99.90
13880;DHT22;7010;48.200;16.332;2022-09-27T15:54:35;13.40;99.90
13880;DHT22;7010;48.200;16.332;2022-09-27T15:57:04;13.40;99.90
13880;DHT22;7010;48.200;16.332;2022-09-27T15:59:34;13.40;99.90
13880;DHT22;7010;48.200;16.332;2022-09-27T16:02:11;13.40;99.90
13880;DHT22;7010;48.200;16.332;2022-09-27T16:04:39;13.40;99.90
13880;DHT22;7010;48.200;16.332;2022-09-27T16:07:09;13.30;99.90
13880;DHT22;7010;48.200;16.332;2022-09-27T16:09:38;13.30;99.90
13880;DHT22;7010;48.200;16.332;2022-09-27T16:12:07;13.30;99.90
13880;DHT22;7010;48.200;16.332;2022-09-27T16:14:35;13.30;99.90
13880;DHT22;7010;48.200;16.332;2022-09-27T16:17:05;13.20;99.90
13880;DHT22;7010;48.200;16.332;2022-09-27T16:19:33;13.30;99.90
13880;DHT22;7010;48.200;16.332;2022-09-27T16:22:02;13.20;99.90
13880;DHT22;7010;48.200;16.332;2022-09-27T16:24:31;13.20;99.90
13880;DHT22;7010;48.200;16.332;2022-09-27T16:27:00;13.20;99.90
13880;DHT22;7010;48.200;16.332;2022-09-27T16:29:30;13.20;99.90
13880;DHT22;7010;48.200;16.332;2022-09-27T16:31:59;13.20;99.90
13880;DHT22;7010;48.200;16.332;2022-09-27T16:34:30;13.20;99.90